createdAt,value
2022-09-09T00:04:43.911Z,28.80
2022-09-09T00:09:50.250Z,28.80
2022-09-09T00:14:57.061Z,28.80
2022-09-09T00:20:08.078Z,28.80
2022-09-09T00:25:17.882Z,28.80
2022-09-09T00:30:23.965Z,28.80
2022-09-09T00:35:32.262Z,28.80
2022-09-09T00:40:40.569Z,28.80
2022-09-09T00:46:12.606Z,28.80
2022-09-09T00:51:24.798Z,28.80
2022-09-09T00:56:32.424Z,28.80
2022-09-09T01:01:36.589Z,28.80
2022-09-09T01:06:41.804Z,28.80
2022-09-09T01:11:56.282Z,28.80
2022-09-09T01:17:06.611Z,28.80
2022-09-09T01:22:23.682Z,28.80
2022-09-09T01:27:29.163Z,28.80
2022-09-09T01:32:45.227Z,28.80
2022-09-09T01:37:49.948Z,28.80
2022-09-09T01:42:55.172Z,28.80
2022-09-09T01:47:58.583Z,28.80
2022-09-09T01:53:20.137Z,28.70
2022-09-09T01:58:36.347Z,28.70
2022-09-09T02:03:40.415Z,28.70
2022-09-09T02:08:52.192Z,28.70
2022-09-09T02:14:00.066Z,28.70
2022-09-09T02:19:08.341Z,28.70
2022-09-09T02:24:29.352Z,28.70
2022-09-09T02:29:48.301Z,28.70
2022-09-09T02:35:00.699Z,28.60
2022-09-09T02:40:04.726Z,28.60
2022-09-09T02:45:13.950Z,28.60
2022-09-09T02:50:22.160Z,28.50
2022-09-09T02:55:33.028Z,28.50
2022-09-09T03:00:38.857Z,28.50
2022-09-09T03:05:44.057Z,28.50
2022-09-09T03:10:48.568Z,28.50
2022-09-09T03:15:53.819Z,28.50
2022-09-09T03:20:58.677Z,28.40
2022-09-09T03:26:01.936Z,28.40
2022-09-09T03:31:15.757Z,28.40
2022-09-09T03:36:19.917Z,28.30
2022-09-09T03:41:25.051Z,28.30
2022-09-09T03:46:30.194Z,28.30
2022-09-09T03:51:37.711Z,28.20
2022-09-09T03:56:42.844Z,28.10
2022-09-09T04:01:50.775Z,27.90
2022-09-09T04:06:54.487Z,27.70
2022-09-09T04:11:57.752Z,27.50
2022-09-09T04:17:05.025Z,27.30
2022-09-09T04:22:09.573Z,27.10
2022-09-09T04:27:13.249Z,26.90
2022-09-09T04:32:17.800Z,26.70
2022-09-09T04:37:21.140Z,26.50
2022-09-09T04:42:24.624Z,26.40
2022-09-09T04:47:29.468Z,26.20
2022-09-09T04:52:32.769Z,26.10
2022-09-09T04:57:37.456Z,26.00
2022-09-09T05:02:43.626Z,25.90
2022-09-09T05:07:48.221Z,25.80
2022-09-09T05:12:55.585Z,25.60
2022-09-09T05:18:04.597Z,25.50
2022-09-09T05:23:10.825Z,25.50
2022-09-09T05:28:14.775Z,25.30
2022-09-09T05:33:19.316Z,25.30
2022-09-09T05:38:28.593Z,25.30
2022-09-09T05:43:33.457Z,25.40
2022-09-09T05:48:39.626Z,25.40
2022-09-09T05:53:43.842Z,25.50
2022-09-09T05:58:50.226Z,25.60
2022-09-09T06:03:57.385Z,25.80
2022-09-09T06:09:01.380Z,25.90
2022-09-09T06:14:11.201Z,26.20
2022-09-09T06:19:17.243Z,26.40
2022-09-09T06:24:21.122Z,26.70
2022-09-09T06:29:25.519Z,26.90
2022-09-09T06:34:31.517Z,27.20
2022-09-09T06:39:36.492Z,27.30
2022-09-09T06:44:40.687Z,27.50
2022-09-09T06:49:50.573Z,27.60
2022-09-09T06:54:54.810Z,27.80
2022-09-09T06:59:58.392Z,27.90
2022-09-09T07:05:03.569Z,28.00
2022-09-09T07:10:08.574Z,28.10
2022-09-09T07:15:14.302Z,28.20
2022-09-09T07:20:22.761Z,28.20
2022-09-09T07:25:28.993Z,28.30
2022-09-09T07:30:32.701Z,28.30
2022-09-09T07:35:38.876Z,28.40
2022-09-09T07:40:42.701Z,28.40
2022-09-09T07:45:46.127Z,28.50
2022-09-09T07:50:52.118Z,28.50
2022-09-09T07:55:56.236Z,28.50
2022-09-09T08:01:00.337Z,28.50
2022-09-09T08:06:07.994Z,28.50
2022-09-09T08:11:15.639Z,28.50
2022-09-09T08:16:22.660Z,28.50
2022-09-09T08:21:29.983Z,28.60
2022-09-09T08:26:37.520Z,28.60
2022-09-09T08:31:43.384Z,28.70
2022-09-09T08:36:50.669Z,28.80
2022-09-09T08:42:30.171Z,28.80
2022-09-09T08:47:48.147Z,29.00
2022-09-09T08:52:57.710Z,29.10
2022-09-09T08:58:07.574Z,29.20
2022-09-09T09:03:24.860Z,29.30
2022-09-09T09:08:39.523Z,29.40
2022-09-09T09:13:49.013Z,29.50
2022-09-09T09:18:56.081Z,29.70
2022-09-09T09:24:04.976Z,29.90
2022-09-09T09:29:14.155Z,30.10
2022-09-09T09:34:19.053Z,30.20
2022-09-09T09:44:52.164Z,30.70
2022-09-09T09:50:00.613Z,30.90
2022-09-09T09:55:15.771Z,31.10
2022-09-09T10:00:23.699Z,31.20
2022-09-09T10:05:38.982Z,31.30
2022-09-09T10:11:05.236Z,31.40
2022-09-09T10:16:23.420Z,31.30
2022-09-09T10:21:44.577Z,31.40
2022-09-09T10:26:56.130Z,31.30
2022-09-09T10:32:09.869Z,31.40
2022-09-09T10:37:24.846Z,31.50
2022-09-09T10:42:33.323Z,31.50
2022-09-09T10:47:52.566Z,31.50
2022-09-09T10:53:04.553Z,31.40
2022-09-09T10:58:16.067Z,31.40
2022-09-09T11:03:26.107Z,31.50
2022-09-09T11:08:32.359Z,31.60
2022-09-09T11:13:44.870Z,31.60
2022-09-09T11:18:50.331Z,31.60
2022-09-09T11:23:58.525Z,31.60
2022-09-09T11:29:24.190Z,31.60
2022-09-09T11:34:41.740Z,31.60
2022-09-09T11:40:04.752Z,31.60
2022-09-09T11:45:22.293Z,31.50
2022-09-09T11:50:37.531Z,31.50
2022-09-09T11:55:40.744Z,31.60
2022-09-09T12:00:46.777Z,31.60
2022-09-09T12:05:50.025Z,31.60
2022-09-09T12:10:57.577Z,31.60
2022-09-09T12:16:03.584Z,31.60
2022-09-09T12:21:13.878Z,31.60
2022-09-09T12:26:35.017Z,31.60
2022-09-09T12:31:46.185Z,31.60
2022-09-09T12:36:55.837Z,31.60
2022-09-09T12:41:59.038Z,31.70
2022-09-09T12:47:05.868Z,31.70
2022-09-09T12:52:18.151Z,31.60
2022-09-09T12:57:22.051Z,31.60
2022-09-09T13:02:29.050Z,31.60
2022-09-09T13:07:32.606Z,31.60
2022-09-09T13:12:35.791Z,31.60
2022-09-09T13:17:42.042Z,31.50
2022-09-09T13:22:45.396Z,31.40
2022-09-09T13:27:58.185Z,31.30
2022-09-09T13:33:24.128Z,31.30
2022-09-09T13:38:27.965Z,31.20
2022-09-09T13:43:33.198Z,31.10
2022-09-09T13:48:37.985Z,31.00
2022-09-09T13:53:41.182Z,31.00
2022-09-09T13:58:44.393Z,30.80
2022-09-09T14:03:49.033Z,30.80
2022-09-09T14:08:52.780Z,30.60
2022-09-09T14:13:56.941Z,30.60
2022-09-09T14:19:02.222Z,30.50
2022-09-09T14:24:05.957Z,30.40
2022-09-09T14:29:09.548Z,30.30
2022-09-09T14:34:15.288Z,30.20
2022-09-09T14:39:18.503Z,30.10
2022-09-09T14:44:21.796Z,29.90
2022-09-09T14:49:26.701Z,29.80
2022-09-09T14:54:30.246Z,29.70
2022-09-09T14:59:33.490Z,29.50
2022-09-09T15:04:38.115Z,29.50
2022-09-09T15:09:41.582Z,29.40
2022-09-09T15:14:44.846Z,29.40
2022-09-09T15:19:55.451Z,29.30
2022-09-09T15:24:58.745Z,29.30
2022-09-09T15:30:01.956Z,29.20
2022-09-09T15:35:07.610Z,29.20
2022-09-09T15:40:11.586Z,29.10
2022-09-09T15:45:16.265Z,29.10
2022-09-09T15:50:20.872Z,29.00
2022-09-09T15:55:25.313Z,29.00
2022-09-09T16:00:29.579Z,28.90
2022-09-09T16:05:35.597Z,28.90
2022-09-09T16:10:38.848Z,28.80
2022-09-09T16:15:42.070Z,28.80
2022-09-09T16:20:56.311Z,28.70
2022-09-09T16:26:03.766Z,28.70
2022-09-09T16:31:11.111Z,28.60
2022-09-09T16:36:17.637Z,28.60
2022-09-09T16:41:21.130Z,28.50
2022-09-09T16:46:25.668Z,28.40
2022-09-09T16:51:32.369Z,28.30
2022-09-09T16:56:38.018Z,28.20
2022-09-09T17:01:44.185Z,28.10
2022-09-09T17:06:51.382Z,28.00
2022-09-09T17:11:56.671Z,28.00
2022-09-09T17:17:14.026Z,27.80
2022-09-09T17:22:27.592Z,27.80
2022-09-09T17:27:32.496Z,27.70
2022-09-09T17:32:36.736Z,27.60
2022-09-09T17:37:41.466Z,27.70
2022-09-09T17:42:44.716Z,27.70
2022-09-09T17:47:49.325Z,27.70
2022-09-09T17:52:54.276Z,27.80
2022-09-09T17:57:57.418Z,27.80
2022-09-09T18:03:00.927Z,27.70
2022-09-09T18:08:05.870Z,27.60
2022-09-09T18:13:10.076Z,27.50
2022-09-09T18:18:14.138Z,27.40
2022-09-09T18:23:19.233Z,27.30
2022-09-09T18:28:32.835Z,27.20
2022-09-09T18:33:38.678Z,27.20
2022-09-09T18:38:43.709Z,27.20
2022-09-09T18:43:47.150Z,27.20
2022-09-09T18:48:51.945Z,27.20
2022-09-09T18:53:58.734Z,27.20
2022-09-09T18:59:03.957Z,27.10
2022-09-09T19:04:09.492Z,27.00
2022-09-09T19:09:15.367Z,26.80
2022-09-09T19:14:19.576Z,26.70
2022-09-09T19:19:25.321Z,26.60
2022-09-09T19:24:32.572Z,26.60
2022-09-09T19:29:39.723Z,26.50
2022-09-09T19:34:44.269Z,26.50
2022-09-09T19:39:49.588Z,26.40
2022-09-09T19:44:53.021Z,26.30
2022-09-09T19:49:56.276Z,26.20
2022-09-09T19:55:01.322Z,26.20
2022-09-09T20:00:05.910Z,26.10
2022-09-09T20:05:15.443Z,25.90
2022-09-09T20:10:20.714Z,25.80
2022-09-09T20:15:23.980Z,25.70
2022-09-09T20:20:27.176Z,25.70
2022-09-09T20:25:31.839Z,25.80
2022-09-09T20:30:38.310Z,25.80
2022-09-09T20:35:41.456Z,25.90
2022-09-09T20:40:48.612Z,25.90
2022-09-09T20:45:53.886Z,26.10
2022-09-09T20:50:57.155Z,26.10
2022-09-09T20:56:02.639Z,26.10
2022-09-09T21:01:07.498Z,26.20
2022-09-09T21:06:10.795Z,26.20
2022-09-09T21:11:17.228Z,26.20
2022-09-09T21:16:21.285Z,26.20
2022-09-09T21:21:27.780Z,26.20
2022-09-09T21:26:32.583Z,26.20
2022-09-09T21:31:35.764Z,26.20
2022-09-09T21:36:39.075Z,26.10
2022-09-09T21:41:43.793Z,26.10
2022-09-09T21:46:47.066Z,26.00
2022-09-09T21:51:50.938Z,25.80
2022-09-09T21:56:55.640Z,25.70
2022-09-09T22:01:59.659Z,25.50
2022-09-09T22:07:03.276Z,25.40
2022-09-09T22:12:08.325Z,25.30
2022-09-09T22:17:12.277Z,25.20
2022-09-09T22:22:15.591Z,25.20
2022-09-09T22:27:20.645Z,25.30
2022-09-09T22:32:23.874Z,25.30
2022-09-09T22:37:27.132Z,25.40
2022-09-09T22:42:31.807Z,25.50
2022-09-09T22:47:35.213Z,25.60
2022-09-09T22:52:38.425Z,25.70
2022-09-09T22:57:43.245Z,25.80
2022-09-09T23:02:48.866Z,25.80
2022-09-09T23:07:53.386Z,25.80
2022-09-09T23:12:58.809Z,25.90
2022-09-09T23:18:01.969Z,25.80
2022-09-09T23:23:05.284Z,25.80
2022-09-09T23:28:09.875Z,25.80
2022-09-09T23:33:13.060Z,25.70
2022-09-09T23:38:16.335Z,25.70
2022-09-09T23:43:22.259Z,25.80
2022-09-09T23:48:27.432Z,25.80
2022-09-09T23:53:31.256Z,25.90
2022-09-09T23:58:36.291Z,25.90
